Time;durP1;ratioP1;P1;durP2;ratioP2;P2;SDS_P1;SDS_P2;PMS_P1;PMS_P2;Temp;Humidity;BMP_temperature;BMP_pressure;BME280_temperature;BME280_humidity;BME280_pressure;Samples;Min_cycle;Max_cycle;Signal;HPM_P1;HPM_P2
2023/10/05 00:01:27;;;;;;;;;;;22.00;50.40;;;;;;5036387;28;19924;-76
2023/10/05 00:03:55;;;;;;;;;;;22.10;50.50;;;;;;5034061;28;19975;-76
2023/10/05 00:06:25;;;;;;;;;;;22.10;50.60;;;;;;5035401;28;19972;-76
2023/10/05 00:08:52;;;;;;;;;;;22.00;50.40;;;;;;5035382;28;19921;-76
2023/10/05 00:11:24;;;;;;;;;;;22.10;50.60;;;;;;5017145;28;19921;-76
2023/10/05 00:13:51;;;;;;;;;;;22.00;50.50;;;;;;5015366;28;19922;-76
2023/10/05 00:16:21;;;;;;;;;;;22.10;50.60;;;;;;5015922;28;19925;-76
2023/10/05 00:18:49;;;;;;;;;;;22.00;50.50;;;;;;5032943;28;20012;-75
2023/10/05 00:21:19;;;;;;;;;;;22.10;50.60;;;;;;5033354;28;19922;-74
2023/10/05 00:23:50;;;;;;;;;;;22.10;50.50;;;;;;5032657;28;19927;-74
2023/10/05 00:26:20;;;;;;;;;;;22.00;50.40;;;;;;5030960;28;19925;-74
2023/10/05 00:29:00;;;;;;;;;;;22.00;50.50;;;;;;5015546;28;19921;-75
2023/10/05 00:31:26;;;;;;;;;;;22.00;50.50;;;;;;5015585;28;19922;-74
2023/10/05 00:33:55;;;;;;;;;;;22.00;50.40;;;;;;5016387;28;20028;-74
2023/10/05 00:36:25;;;;;;;;;;;22.00;50.40;;;;;;5016026;28;20031;-74
2023/10/05 00:38:52;;;;;;;;;;;22.00;50.40;;;;;;5015841;28;19921;-73
2023/10/05 00:41:19;;;;;;;;;;;22.00;50.40;;;;;;5016281;28;20251;-74
2023/10/05 00:43:46;;;;;;;;;;;22.00;50.50;;;;;;5032587;28;19969;-73
2023/10/05 00:46:13;;;;;;;;;;;22.00;50.50;;;;;;5035975;28;19925;-73
2023/10/05 00:48:42;;;;;;;;;;;22.00;50.50;;;;;;5048430;28;19929;-74
2023/10/05 00:51:14;;;;;;;;;;;22.00;50.50;;;;;;5048746;28;19925;-73
2023/10/05 00:53:48;;;;;;;;;;;22.00;50.80;;;;;;5030084;28;19921;-74
2023/10/05 00:56:15;;;;;;;;;;;22.00;50.50;;;;;;5026605;28;19921;-74
2023/10/05 00:58:44;;;;;;;;;;;22.00;50.50;;;;;;5051863;28;19928;-74
2023/10/05 01:01:16;;;;;;;;;;;22.00;50.50;;;;;;5035991;28;19960;-73
2023/10/05 01:04:00;;;;;;;;;;;22.00;50.50;;;;;;5051599;28;19982;-74
2023/10/05 01:06:31;;;;;;;;;;;22.00;50.50;;;;;;5049797;28;19967;-73
2023/10/05 01:09:04;;;;;;;;;;;22.00;50.50;;;;;;5034493;28;19936;-74
2023/10/05 01:11:40;;;;;;;;;;;22.00;50.50;;;;;;5015263;28;19921;-74
2023/10/05 01:14:08;;;;;;;;;;;22.00;50.50;;;;;;5015226;28;19930;-74
2023/10/05 01:16:35;;;;;;;;;;;22.00;50.50;;;;;;5015140;28;19922;-74
2023/10/05 01:19:07;;;;;;;;;;;22.00;50.40;;;;;;5014877;28;19922;-73
2023/10/05 01:21:35;;;;;;;;;;;22.00;50.40;;;;;;5015283;28;19921;-74
2023/10/05 01:24:04;;;;;;;;;;;22.00;50.40;;;;;;4997058;28;19922;-74
2023/10/05 01:26:31;;;;;;;;;;;22.00;50.40;;;;;;5014240;28;19921;-73
2023/10/05 01:28:58;;;;;;;;;;;22.00;50.50;;;;;;5016424;28;19920;-74
2023/10/05 01:31:25;;;;;;;;;;;22.00;50.50;;;;;;5033704;28;19975;-74
2023/10/05 01:33:52;;;;;;;;;;;22.00;50.40;;;;;;5031766;28;20011;-74
2023/10/05 01:36:22;;;;;;;;;;;22.00;50.50;;;;;;5034164;28;19921;-74
2023/10/05 01:38:49;;;;;;;;;;;22.00;50.40;;;;;;5034174;28;19925;-76
2023/10/05 01:41:21;;;;;;;;;;;22.00;50.40;;;;;;5034723;28;19921;-74
2023/10/05 01:43:48;;;;;;;;;;;22.00;50.40;;;;;;5032174;28;19971;-74
2023/10/05 01:46:15;;;;;;;;;;;22.00;50.50;;;;;;5034570;28;19921;-74
2023/10/05 01:48:42;;;;;;;;;;;22.00;50.40;;;;;;5033557;28;19920;-73
2023/10/05 01:51:10;;;;;;;;;;;22.00;50.40;;;;;;5035192;28;19921;-73
2023/10/05 01:53:37;;;;;;;;;;;22.00;50.40;;;;;;5051045;28;19928;-73
2023/10/05 01:56:04;;;;;;;;;;;22.00;50.40;;;;;;5033136;28;19925;-74
2023/10/05 01:58:39;;;;;;;;;;;22.00;50.40;;;;;;5034234;28;19928;-74
2023/10/05 02:01:06;;;;;;;;;;;22.00;50.50;;;;;;5033890;28;19921;-75
2023/10/05 02:03:33;;;;;;;;;;;22.00;50.40;;;;;;5032010;28;19924;-74
2023/10/05 02:06:05;;;;;;;;;;;22.00;50.40;;;;;;5033962;28;19925;-74
2023/10/05 02:08:35;;;;;;;;;;;22.00;50.40;;;;;;5034319;28;19921;-74
2023/10/05 02:11:04;;;;;;;;;;;22.00;50.40;;;;;;5032191;28;19921;-74
2023/10/05 02:13:31;;;;;;;;;;;22.00;50.40;;;;;;5034274;28;19969;-76
2023/10/05 02:16:00;;;;;;;;;;;22.00;50.30;;;;;;5032138;28;20019;-74
2023/10/05 02:18:30;;;;;;;;;;;22.00;50.40;;;;;;5033734;28;19925;-74
2023/10/05 02:21:03;;;;;;;;;;;21.90;50.30;;;;;;5032703;28;20060;-74
2023/10/05 02:23:35;;;;;;;;;;;22.00;50.40;;;;;;5033453;28;19956;-74
2023/10/05 02:26:04;;;;;;;;;;;22.00;50.40;;;;;;5031789;28;19920;-74
2023/10/05 02:28:33;;;;;;;;;;;22.00;50.40;;;;;;5033799;28;20028;-74
2023/10/05 02:31:11;;;;;;;;;;;21.90;50.30;;;;;;5049985;28;19921;-74
2023/10/05 02:33:40;;;;;;;;;;;22.00;50.40;;;;;;5033425;28;20016;-74
2023/10/05 02:36:11;;;;;;;;;;;22.00;50.40;;;;;;5035755;28;19975;-74
2023/10/05 02:38:38;;;;;;;;;;;22.00;51.00;;;;;;5037441;28;19924;-75
2023/10/05 02:41:06;;;;;;;;;;;22.00;50.50;;;;;;5035684;28;19922;-75
2023/10/05 02:43:38;;;;;;;;;;;22.00;50.40;;;;;;5037871;28;19928;-75
2023/10/05 02:46:10;;;;;;;;;;;22.00;50.40;;;;;;5038718;28;20012;-75
2023/10/05 02:48:39;;;;;;;;;;;22.00;50.50;;;;;;5038487;28;19925;-75
2023/10/05 02:51:06;;;;;;;;;;;22.00;50.50;;;;;;5037848;28;19921;-75
2023/10/05 02:53:41;;;;;;;;;;;22.00;50.40;;;;;;5037264;28;19925;-75
2023/10/05 02:56:18;;;;;;;;;;;21.90;50.30;;;;;;5036713;28;19921;-75
2023/10/05 02:58:45;;;;;;;;;;;22.00;50.50;;;;;;5037226;28;20449;-75
2023/10/05 03:01:15;;;;;;;;;;;21.90;50.40;;;;;;5037259;28;19921;-75
2023/10/05 03:03:43;;;;;;;;;;;22.00;50.50;;;;;;5037085;28;20346;-75
2023/10/05 03:06:10;;;;;;;;;;;21.90;50.30;;;;;;5035263;28;19921;-75
2023/10/05 03:08:37;;;;;;;;;;;22.00;50.40;;;;;;5036761;28;19967;-75
2023/10/05 03:11:07;;;;;;;;;;;22.00;50.50;;;;;;5037255;28;20076;-75
2023/10/05 03:13:33;;;;;;;;;;;21.90;50.30;;;;;;5035099;28;19925;-76
2023/10/05 03:16:06;;;;;;;;;;;21.90;50.30;;;;;;5037110;28;19953;-75
2023/10/05 03:18:37;;;;;;;;;;;21.90;50.30;;;;;;5024262;28;19929;-76
2023/10/05 03:21:09;;;;;;;;;;;21.90;50.40;;;;;;5017228;28;20032;-74
2023/10/05 03:23:37;;;;;;;;;;;21.90;50.30;;;;;;5015879;28;19976;-74
2023/10/05 03:26:04;;;;;;;;;;;21.90;50.40;;;;;;5016884;28;19925;-74
2023/10/05 03:28:35;;;;;;;;;;;21.90;50.40;;;;;;5016589;28;19929;-75
2023/10/05 03:31:06;;;;;;;;;;;21.90;50.40;;;;;;5024955;28;20060;-74
2023/10/05 03:33:34;;;;;;;;;;;21.90;50.40;;;;;;5036533;28;20393;-75
2023/10/05 03:36:06;;;;;;;;;;;21.90;50.40;;;;;;5037250;28;19928;-75
2023/10/05 03:38:33;;;;;;;;;;;21.90;50.40;;;;;;5036489;28;19921;-75
2023/10/05 03:41:03;;;;;;;;;;;21.90;50.40;;;;;;5036747;28;19921;-75
2023/10/05 03:43:31;;;;;;;;;;;21.90;50.40;;;;;;5052890;28;19921;-73
2023/10/05 03:45:58;;;;;;;;;;;21.90;50.40;;;;;;5036428;28;19943;-75
2023/10/05 03:48:26;;;;;;;;;;;21.90;50.50;;;;;;5034887;28;19921;-74
2023/10/05 03:50:54;;;;;;;;;;;21.90;50.50;;;;;;5036020;28;20330;-75
2023/10/05 03:53:21;;;;;;;;;;;21.90;50.50;;;;;;5034322;28;19921;-75
2023/10/05 03:55:50;;;;;;;;;;;21.90;50.50;;;;;;5037072;28;19921;-75
2023/10/05 03:58:17;;;;;;;;;;;21.90;50.50;;;;;;5034940;28;20354;-75
2023/10/05 04:00:49;;;;;;;;;;;21.90;50.50;;;;;;5034843;28;19921;-74
2023/10/05 04:03:19;;;;;;;;;;;21.90;50.50;;;;;;5036171;28;19932;-76
2023/10/05 04:05:47;;;;;;;;;;;21.90;50.50;;;;;;5036775;28;19975;-75
2023/10/05 04:08:16;;;;;;;;;;;21.90;50.60;;;;;;5035149;28;19921;-75
2023/10/05 04:10:49;;;;;;;;;;;21.90;50.60;;;;;;5052501;28;19928;-75
2023/10/05 04:13:17;;;;;;;;;;;21.90;50.60;;;;;;5035436;28;19925;-75
2023/10/05 04:15:44;;;;;;;;;;;21.90;50.60;;;;;;5019146;28;19922;-75
2023/10/05 04:18:14;;;;;;;;;;;21.90;50.60;;;;;;5043174;28;19928;-75
2023/10/05 04:20:43;;;;;;;;;;;21.90;50.60;;;;;;5035698;28;20012;-75
2023/10/05 04:23:10;;;;;;;;;;;21.90;50.60;;;;;;5035841;28;19921;-74
2023/10/05 04:25:38;;;;;;;;;;;21.90;50.60;;;;;;5035185;28;19929;-75
2023/10/05 04:28:05;;;;;;;;;;;21.90;50.70;;;;;;5035603;28;19971;-75
2023/10/05 04:30:33;;;;;;;;;;;21.90;50.70;;;;;;5035796;28;19921;-75
2023/10/05 04:33:03;;;;;;;;;;;21.90;50.70;;;;;;5033042;28;19928;-76
2023/10/05 04:35:32;;;;;;;;;;;21.90;50.70;;;;;;5034906;28;19928;-76
2023/10/05 04:38:00;;;;;;;;;;;21.90;50.70;;;;;;5018500;28;20267;-75
2023/10/05 04:40:27;;;;;;;;;;;21.90;50.70;;;;;;5034913;28;20027;-76
2023/10/05 04:42:58;;;;;;;;;;;21.90;50.70;;;;;;5035051;28;19928;-75
2023/10/05 04:45:27;;;;;;;;;;;21.90;50.80;;;;;;5034610;28;19992;-74
2023/10/05 04:47:58;;;;;;;;;;;21.90;50.80;;;;;;5035019;28;19921;-75
2023/10/05 04:50:26;;;;;;;;;;;21.90;50.80;;;;;;5033355;28;19928;-75
2023/10/05 04:52:54;;;;;;;;;;;21.90;50.80;;;;;;5034717;28;19921;-75
2023/10/05 04:55:31;;;;;;;;;;;21.90;50.80;;;;;;5034321;28;19921;-75
2023/10/05 04:58:14;;;;;;;;;;;21.90;50.80;;;;;;5051319;28;20016;-75
2023/10/05 05:01:04;;;;;;;;;;;21.90;50.90;;;;;;5035469;28;19921;-75
2023/10/05 05:03:47;;;;;;;;;;;21.90;50.90;;;;;;5050839;28;19921;-75
2023/10/05 05:06:14;;;;;;;;;;;21.90;50.90;;;;;;5033037;28;19921;-75
2023/10/05 05:08:41;;;;;;;;;;;21.90;50.90;;;;;;5051225;28;19921;-75
2023/10/05 05:11:11;;;;;;;;;;;21.90;50.90;;;;;;5035470;28;19921;-75
2023/10/05 05:13:40;;;;;;;;;;;21.90;50.90;;;;;;5050800;28;19940;-74
2023/10/05 05:16:07;;;;;;;;;;;21.90;50.90;;;;;;5051504;28;19932;-74
2023/10/05 05:18:37;;;;;;;;;;;21.90;50.90;;;;;;5032897;28;19928;-74
2023/10/05 05:21:07;;;;;;;;;;;21.90;50.90;;;;;;5034832;28;19921;-76
2023/10/05 05:23:34;;;;;;;;;;;21.90;51.00;;;;;;5034110;28;19921;-78
2023/10/05 05:26:02;;;;;;;;;;;21.90;51.00;;;;;;5034832;28;19927;-77
2023/10/05 05:28:29;;;;;;;;;;;21.90;51.00;;;;;;5051097;28;19956;-77
2023/10/05 05:31:00;;;;;;;;;;;21.90;51.10;;;;;;5034706;28;19932;-78
2023/10/05 05:33:27;;;;;;;;;;;21.90;51.10;;;;;;5033593;28;19921;-79
2023/10/05 05:35:56;;;;;;;;;;;21.90;51.10;;;;;;5033442;28;22850;-79
2023/10/05 05:38:22;;;;;;;;;;;21.90;51.10;;;;;;5031844;28;19921;-78
2023/10/05 05:40:49;;;;;;;;;;;21.90;51.10;;;;;;5034123;28;19928;-78
2023/10/05 05:43:16;;;;;;;;;;;21.90;51.20;;;;;;5032020;28;19925;-78
2023/10/05 05:45:43;;;;;;;;;;;21.90;51.20;;;;;;5035372;28;19921;-78
2023/10/05 05:48:14;;;;;;;;;;;22.00;51.30;;;;;;5032214;28;19925;-73
2023/10/05 05:50:42;;;;;;;;;;;21.90;51.20;;;;;;5034582;28;19970;-78
2023/10/05 05:53:11;;;;;;;;;;;21.90;51.30;;;;;;5033436;28;19921;-77
2023/10/05 05:55:40;;;;;;;;;;;21.90;51.30;;;;;;5033831;28;19925;-82
2023/10/05 05:58:07;;;;;;;;;;;21.90;51.30;;;;;;5048599;28;20020;-82
2023/10/05 06:00:34;;;;;;;;;;;21.90;51.30;;;;;;5050366;28;19928;-83
2023/10/05 06:03:01;;;;;;;;;;;22.00;51.40;;;;;;5050112;28;19921;-79
2023/10/05 06:05:29;;;;;;;;;;;21.90;51.30;;;;;;5034325;28;19921;-81
2023/10/05 06:07:57;;;;;;;;;;;21.90;51.40;;;;;;5033903;28;19932;-88
2023/10/05 06:10:28;;;;;;;;;;;22.00;51.50;;;;;;5050266;28;19921;-90
2023/10/05 06:12:55;;;;;;;;;;;22.00;51.50;;;;;;5050346;28;19986;-82
2023/10/05 06:15:22;;;;;;;;;;;22.00;51.50;;;;;;5034214;28;19921;-85
2023/10/05 06:17:49;;;;;;;;;;;22.00;51.50;;;;;;5034613;28;19928;-85
2023/10/05 06:20:17;;;;;;;;;;;22.00;51.50;;;;;;5017524;28;19921;-84
2023/10/05 06:22:45;;;;;;;;;;;22.00;51.60;;;;;;5035969;28;19928;-89
2023/10/05 06:25:12;;;;;;;;;;;22.00;51.60;;;;;;5035684;28;20012;-86
2023/10/05 06:27:39;;;;;;;;;;;22.00;51.60;;;;;;5032877;28;19920;-90
2023/10/05 06:30:07;;;;;;;;;;;22.00;51.60;;;;;;5034904;28;19921;-82
2023/10/05 06:32:34;;;;;;;;;;;22.00;51.60;;;;;;5035612;28;20042;-86
2023/10/05 06:35:00;;;;;;;;;;;22.00;51.60;;;;;;5031790;28;20100;-80
2023/10/05 06:37:27;;;;;;;;;;;22.00;51.60;;;;;;5014794;28;19989;-77
2023/10/05 06:39:56;;;;;;;;;;;22.00;51.70;;;;;;5024101;28;19968;-76
2023/10/05 06:42:25;;;;;;;;;;;22.00;51.70;;;;;;5014773;28;19928;-79
2023/10/05 06:44:52;;;;;;;;;;;22.00;51.70;;;;;;5030674;28;19921;-82
2023/10/05 06:47:35;;;;;;;;;;;22.10;51.80;;;;;;5034420;28;19921;-77
2023/10/05 06:50:03;;;;;;;;;;;22.10;51.80;;;;;;5030796;28;20379;-74
2023/10/05 06:52:30;;;;;;;;;;;22.00;51.80;;;;;;5034425;28;19921;-75
2023/10/05 06:54:58;;;;;;;;;;;22.10;51.90;;;;;;5031509;28;19997;-75
2023/10/05 06:57:25;;;;;;;;;;;22.10;52.00;;;;;;5035005;28;19922;-75
2023/10/05 06:59:55;;;;;;;;;;;22.10;52.00;;;;;;5033516;28;19928;-74
2023/10/05 07:02:22;;;;;;;;;;;22.10;52.10;;;;;;5031176;28;20412;-78
2023/10/05 07:04:48;;;;;;;;;;;22.10;52.10;;;;;;5031040;28;20247;-75
2023/10/05 07:07:15;;;;;;;;;;;22.10;52.10;;;;;;5029929;28;19922;-75
2023/10/05 07:09:42;;;;;;;;;;;22.10;52.10;;;;;;5033855;28;20370;-73
2023/10/05 07:12:10;;;;;;;;;;;22.10;52.10;;;;;;5033157;28;19960;-74
2023/10/05 07:14:37;;;;;;;;;;;22.10;52.10;;;;;;5030990;28;19931;-75
2023/10/05 07:17:04;;;;;;;;;;;22.10;52.20;;;;;;5033115;28;19928;-77
2023/10/05 07:19:31;;;;;;;;;;;22.10;52.20;;;;;;5026743;28;19929;-81
2023/10/05 07:21:58;;;;;;;;;;;22.10;52.20;;;;;;5012992;28;19928;-80
2023/10/05 07:24:25;;;;;;;;;;;22.10;52.20;;;;;;5013174;28;19927;-81
2023/10/05 07:26:52;;;;;;;;;;;22.10;52.30;;;;;;5023628;28;19927;-76
2023/10/05 07:29:20;;;;;;;;;;;22.10;52.30;;;;;;5034061;28;19933;-75
2023/10/05 07:31:47;;;;;;;;;;;22.10;52.30;;;;;;5049354;28;19929;-80
2023/10/05 07:34:15;;;;;;;;;;;22.10;52.40;;;;;;5036357;28;20027;-81
2023/10/05 07:36:42;;;;;;;;;;;22.10;52.50;;;;;;5034687;28;20397;-80
2023/10/05 07:39:11;;;;;;;;;;;22.10;52.60;;;;;;5031506;28;19976;-78
2023/10/05 07:41:38;;;;;;;;;;;22.10;52.60;;;;;;5018870;28;19931;-79
2023/10/05 07:44:05;;;;;;;;;;;22.10;52.70;;;;;;5025679;28;19953;-77
2023/10/05 07:46:38;;;;;;;;;;;22.10;52.80;;;;;;5017439;28;19980;-81
2023/10/05 07:49:04;;;;;;;;;;;22.10;52.90;;;;;;5025370;28;19921;-68
2023/10/05 07:51:32;;;;;;;;;;;22.10;52.90;;;;;;5035357;28;19971;-73
2023/10/05 07:53:59;;;;;;;;;;;22.10;52.90;;;;;;5019276;28;19929;-77
2023/10/05 07:56:26;;;;;;;;;;;22.10;52.90;;;;;;5017307;28;20389;-74
2023/10/05 07:58:54;;;;;;;;;;;22.10;52.90;;;;;;5023485;28;19964;-78
2023/10/05 08:01:21;;;;;;;;;;;22.10;52.90;;;;;;5032393;28;20016;-77
2023/10/05 08:03:49;;;;;;;;;;;22.10;52.90;;;;;;5036522;28;19970;-79
2023/10/05 08:06:16;;;;;;;;;;;22.10;52.90;;;;;;5030876;28;19928;-80
2023/10/05 08:08:43;;;;;;;;;;;22.10;52.90;;;;;;5016393;28;19952;-78
2023/10/05 08:11:12;;;;;;;;;;;22.10;53.00;;;;;;5015018;28;19960;-77
2023/10/05 08:13:39;;;;;;;;;;;22.20;53.10;;;;;;5029122;28;19921;-77
2023/10/05 08:16:07;;;;;;;;;;;22.20;53.10;;;;;;5043042;28;19928;-77
2023/10/05 08:18:34;;;;;;;;;;;22.10;53.00;;;;;;5070035;28;19924;-77
2023/10/05 08:21:04;;;;;;;;;;;22.10;53.70;;;;;;5042340;28;19921;-78
2023/10/05 08:23:31;;;;;;;;;;;22.20;53.20;;;;;;5048759;28;19921;-74
2023/10/05 08:25:58;;;;;;;;;;;22.10;53.10;;;;;;5033716;28;19926;-73
2023/10/05 08:28:25;;;;;;;;;;;22.10;53.10;;;;;;5015310;28;20012;-75
2023/10/05 08:31:04;;;;;;;;;;;22.20;53.30;;;;;;5023459;28;19925;-80
2023/10/05 08:33:33;;;;;;;;;;;22.20;53.30;;;;;;5023907;28;19928;-79
2023/10/05 08:36:01;;;;;;;;;;;22.20;53.30;;;;;;5021530;28;19921;-77
2023/10/05 08:38:30;;;;;;;;;;;22.10;53.30;;;;;;5034979;28;19951;-76
2023/10/05 08:41:00;;;;;;;;;;;22.20;53.40;;;;;;5018477;28;19927;-76
2023/10/05 08:43:28;;;;;;;;;;;22.20;53.50;;;;;;5035227;28;19921;-79
2023/10/05 08:45:54;;;;;;;;;;;22.10;53.60;;;;;;5019753;28;19921;-80
2023/10/05 08:48:28;;;;;;;;;;;22.20;53.80;;;;;;5015740;28;19928;-71
2023/10/05 08:50:56;;;;;;;;;;;22.10;53.70;;;;;;5015239;28;20241;-73
2023/10/05 08:53:23;;;;;;;;;;;22.10;53.70;;;;;;5015646;28;20029;-75
2023/10/05 08:55:56;;;;;;;;;;;22.10;53.70;;;;;;5014654;28;20347;-72
2023/10/05 08:58:28;;;;;;;;;;;22.10;53.70;;;;;;5072337;28;19921;-77
2023/10/05 09:00:58;;;;;;;;;;;22.10;53.70;;;;;;5052740;28;19921;-76
2023/10/05 09:03:35;;;;;;;;;;;22.10;53.60;;;;;;5033903;28;19955;-76
2023/10/05 09:06:16;;;;;;;;;;;22.10;53.60;;;;;;5054992;28;20020;-80
2023/10/05 09:09:08;;;;;;;;;;;22.10;53.60;;;;;;5045052;28;19928;-91
2023/10/05 09:11:37;;;;;;;;;;;22.10;54.30;;;;;;5016381;28;20016;-77
2023/10/05 09:14:12;;;;;;;;;;;22.20;53.80;;;;;;5034588;28;19921;-78
2023/10/05 09:16:42;;;;;;;;;;;22.10;53.90;;;;;;5025685;28;19972;-76
2023/10/05 09:19:12;;;;;;;;;;;22.10;53.90;;;;;;5012939;28;19926;-80
2023/10/05 09:21:50;;;;;;;;;;;22.10;53.90;;;;;;5017566;28;19925;-77
2023/10/05 09:24:23;;;;;;;;;;;22.10;53.90;;;;;;5013205;28;19967;-78
2023/10/05 09:26:55;;;;;;;;;;;22.20;53.90;;;;;;5015889;28;19921;-77
2023/10/05 09:29:22;;;;;;;;;;;22.20;53.90;;;;;;5030004;28;19979;-78
2023/10/05 09:31:53;;;;;;;;;;;22.20;53.90;;;;;;5030960;28;19979;-79
2023/10/05 09:34:27;;;;;;;;;;;22.20;53.90;;;;;;5034157;28;20032;-75
2023/10/05 09:36:54;;;;;;;;;;;22.20;53.90;;;;;;5033793;28;20255;-78
2023/10/05 09:39:21;;;;;;;;;;;22.20;53.90;;;;;;5032794;28;19927;-81
2023/10/05 09:41:50;;;;;;;;;;;22.10;54.00;;;;;;5034698;28;19925;-79
2023/10/05 09:44:18;;;;;;;;;;;22.20;54.00;;;;;;5034520;28;19921;-81
2023/10/05 09:46:45;;;;;;;;;;;22.10;53.90;;;;;;5046845;28;19927;-82
2023/10/05 09:49:17;;;;;;;;;;;22.10;53.90;;;;;;5051145;28;19921;-83
2023/10/05 09:51:48;;;;;;;;;;;22.10;53.90;;;;;;5051559;28;20019;-83
2023/10/05 09:54:15;;;;;;;;;;;22.20;54.10;;;;;;5036951;28;19921;-77
2023/10/05 09:56:42;;;;;;;;;;;22.10;54.10;;;;;;5034694;28;19921;-74
2023/10/05 09:59:15;;;;;;;;;;;22.10;54.10;;;;;;5020374;28;19921;-77
2023/10/05 10:01:45;;;;;;;;;;;22.20;54.20;;;;;;5014702;28;19945;-74
2023/10/05 10:04:18;;;;;;;;;;;22.20;54.10;;;;;;5021341;28;19967;-73
2023/10/05 10:06:53;;;;;;;;;;;22.20;54.20;;;;;;5033108;28;19983;-77
2023/10/05 10:09:26;;;;;;;;;;;22.20;54.20;;;;;;5019010;28;19921;-80
2023/10/05 10:11:53;;;;;;;;;;;22.20;54.40;;;;;;5012154;28;19929;-71
2023/10/05 10:14:26;;;;;;;;;;;22.20;54.30;;;;;;5016743;28;19921;-74
2023/10/05 10:17:01;;;;;;;;;;;22.20;54.40;;;;;;5050641;28;19928;-82
2023/10/05 10:19:28;;;;;;;;;;;22.20;54.50;;;;;;5050649;28;19928;-75
2023/10/05 10:22:00;;;;;;;;;;;22.20;54.50;;;;;;5051548;28;19960;-73
2023/10/05 10:24:28;;;;;;;;;;;22.20;54.60;;;;;;5029848;28;19921;-77
2023/10/05 10:27:07;;;;;;;;;;;22.20;54.60;;;;;;5033183;28;19921;-75
2023/10/05 10:29:42;;;;;;;;;;;22.20;54.70;;;;;;5053428;28;19921;-75
2023/10/05 10:32:18;;;;;;;;;;;22.30;54.70;;;;;;5054356;28;19966;-75
2023/10/05 10:34:49;;;;;;;;;;;22.20;54.70;;;;;;5069091;28;19920;-74
2023/10/05 10:37:31;;;;;;;;;;;22.30;54.80;;;;;;5027305;28;19922;-85
2023/10/05 10:39:59;;;;;;;;;;;22.30;54.90;;;;;;5027376;28;19920;-79
2023/10/05 10:42:26;;;;;;;;;;;22.30;54.90;;;;;;5069747;28;19956;-78
2023/10/05 10:44:57;;;;;;;;;;;22.30;54.90;;;;;;5054382;28;19920;-81
2023/10/05 10:47:27;;;;;;;;;;;22.30;54.90;;;;;;5052510;28;19921;-79
2023/10/05 10:50:04;;;;;;;;;;;22.30;54.90;;;;;;5025865;28;19921;-77
2023/10/05 10:52:32;;;;;;;;;;;22.30;54.90;;;;;;5031815;28;19971;-76
2023/10/05 10:54:59;;;;;;;;;;;22.30;55.00;;;;;;5030393;28;19928;-71
2023/10/05 10:57:26;;;;;;;;;;;22.30;54.90;;;;;;5016318;28;19922;-75
2023/10/05 11:00:03;;;;;;;;;;;22.30;54.80;;;;;;5035671;28;19927;-78
2023/10/05 11:02:38;;;;;;;;;;;22.30;55.00;;;;;;5057469;28;19924;-78
2023/10/05 11:05:05;;;;;;;;;;;22.30;55.20;;;;;;5035436;28;19929;-78
2023/10/05 11:07:34;;;;;;;;;;;22.30;55.50;;;;;;5035978;28;19925;-76
2023/10/05 11:10:04;;;;;;;;;;;22.30;55.40;;;;;;5044997;28;19925;-77
2023/10/05 11:12:31;;;;;;;;;;;22.20;55.30;;;;;;5036767;28;19962;-78
2023/10/05 11:15:08;;;;;;;;;;;22.20;55.40;;;;;;5033871;28;19921;-78
2023/10/05 11:17:44;;;;;;;;;;;22.20;55.40;;;;;;5036286;28;19928;-77
2023/10/05 11:20:23;;;;;;;;;;;22.10;55.60;;;;;;5031359;28;19972;-77
2023/10/05 11:22:55;;;;;;;;;;;22.10;55.80;;;;;;5030137;28;19921;-77
2023/10/05 11:25:31;;;;;;;;;;;22.00;55.50;;;;;;5037639;28;19921;-77
2023/10/05 11:27:59;;;;;;;;;;;22.00;55.10;;;;;;5035251;28;19943;-78
2023/10/05 11:30:26;;;;;;;;;;;22.00;55.10;;;;;;5024993;28;20329;-78
2023/10/05 11:32:56;;;;;;;;;;;22.00;55.10;;;;;;5050598;28;19927;-78
2023/10/05 11:35:28;;;;;;;;;;;22.00;55.00;;;;;;5054359;28;20012;-78
2023/10/05 11:37:59;;;;;;;;;;;21.90;54.80;;;;;;5048098;28;19921;-77
2023/10/05 11:40:31;;;;;;;;;;;21.90;54.80;;;;;;5034685;28;19921;-77
2023/10/05 11:42:58;;;;;;;;;;;21.90;55.00;;;;;;5055900;28;19951;-72
2023/10/05 11:45:25;;;;;;;;;;;21.90;54.80;;;;;;5039593;28;20046;-76
2023/10/05 11:47:52;;;;;;;;;;;21.90;54.80;;;;;;5038691;28;19925;-75
2023/10/05 11:50:33;;;;;;;;;;;21.90;54.80;;;;;;5038263;28;19925;-74
2023/10/05 11:52:59;;;;;;;;;;;21.90;54.10;;;;;;5035918;28;19921;-74
2023/10/05 11:55:26;;;;;;;;;;;21.80;53.00;;;;;;5040160;28;19921;-74
2023/10/05 11:57:53;;;;;;;;;;;21.80;52.50;;;;;;5041426;28;19952;-72
2023/10/05 12:00:20;;;;;;;;;;;21.70;51.70;;;;;;5038595;28;19925;-72
2023/10/05 12:02:47;;;;;;;;;;;21.70;51.40;;;;;;5026878;28;19922;-75
2023/10/05 12:05:14;;;;;;;;;;;21.70;50.90;;;;;;5027964;28;19921;-73
2023/10/05 12:07:45;;;;;;;;;;;21.70;50.50;;;;;;5032972;28;19928;-72
2023/10/05 12:10:13;;;;;;;;;;;21.60;50.50;;;;;;5043727;28;19967;-74
2023/10/05 12:12:41;;;;;;;;;;;21.60;50.40;;;;;;5066538;28;19921;-75
2023/10/05 12:15:13;;;;;;;;;;;21.60;50.70;;;;;;5034149;28;19925;-77
2023/10/05 12:17:40;;;;;;;;;;;21.60;50.40;;;;;;5031584;28;19980;-76
2023/10/05 12:20:12;;;;;;;;;;;21.50;49.90;;;;;;5018688;28;19944;-77
2023/10/05 12:22:40;;;;;;;;;;;21.50;49.70;;;;;;5042107;28;19984;-76
2023/10/05 12:25:09;;;;;;;;;;;21.50;49.60;;;;;;5053091;28;20020;-76
2023/10/05 12:27:36;;;;;;;;;;;21.40;49.30;;;;;;5055974;28;19924;-78
2023/10/05 12:30:10;;;;;;;;;;;21.40;49.30;;;;;;5032926;28;20011;-79
2023/10/05 12:32:38;;;;;;;;;;;21.40;49.40;;;;;;5037855;28;19921;-77
2023/10/05 12:35:06;;;;;;;;;;;21.30;49.40;;;;;;5024086;28;19988;-78
2023/10/05 12:37:33;;;;;;;;;;;21.30;49.60;;;;;;5033721;28;19967;-77
2023/10/05 12:40:11;;;;;;;;;;;21.30;49.90;;;;;;5019976;28;19921;-76
2023/10/05 12:42:39;;;;;;;;;;;21.30;49.90;;;;;;5042911;28;20159;-73
2023/10/05 12:45:11;;;;;;;;;;;21.30;50.10;;;;;;5019613;28;19976;-74
2023/10/05 12:47:39;;;;;;;;;;;21.30;50.00;;;;;;5029097;28;19925;-75
2023/10/05 12:50:06;;;;;;;;;;;21.30;49.70;;;;;;5017570;28;19921;-75
2023/10/05 12:52:34;;;;;;;;;;;21.30;49.60;;;;;;5013845;28;19928;-78
2023/10/05 12:55:01;;;;;;;;;;;21.30;49.50;;;;;;5045346;28;19924;-78
2023/10/05 12:57:30;;;;;;;;;;;21.30;49.70;;;;;;5040780;28;19928;-76
2023/10/05 12:59:59;;;;;;;;;;;21.30;49.90;;;;;;5051745;28;19927;-75
2023/10/05 13:02:26;;;;;;;;;;;21.30;50.10;;;;;;5030853;28;19928;-76
2023/10/05 13:04:52;;;;;;;;;;;21.30;50.20;;;;;;5032069;28;19929;-75
2023/10/05 13:07:26;;;;;;;;;;;21.30;50.20;;;;;;5039669;28;19956;-81
2023/10/05 13:10:08;;;;;;;;;;;21.30;50.30;;;;;;5031508;28;19925;-78
2023/10/05 13:12:35;;;;;;;;;;;21.40;50.40;;;;;;5022127;28;19927;-75
2023/10/05 13:15:04;;;;;;;;;;;21.40;50.40;;;;;;5040082;28;19956;-75
2023/10/05 13:17:35;;;;;;;;;;;21.40;50.00;;;;;;5051994;28;20007;-79
2023/10/05 13:20:02;;;;;;;;;;;21.40;50.00;;;;;;5050297;28;20390;-83
2023/10/05 13:22:29;;;;;;;;;;;21.40;50.00;;;;;;5053758;28;19967;-79
2023/10/05 13:24:57;;;;;;;;;;;21.40;49.90;;;;;;5035427;28;19967;-80
2023/10/05 13:27:24;;;;;;;;;;;21.40;50.00;;;;;;5015892;28;19921;-78
2023/10/05 13:29:51;;;;;;;;;;;21.40;49.90;;;;;;5032455;28;19972;-76
2023/10/05 13:32:20;;;;;;;;;;;21.40;49.80;;;;;;5043355;28;19929;-72
2023/10/05 13:34:47;;;;;;;;;;;21.40;49.90;;;;;;5017197;28;20248;-80
2023/10/05 13:37:14;;;;;;;;;;;21.40;49.90;;;;;;5032981;28;19922;-74
2023/10/05 13:39:44;;;;;;;;;;;21.40;50.10;;;;;;5042082;28;19967;-77
2023/10/05 13:42:17;;;;;;;;;;;21.40;50.20;;;;;;5051721;28;19970;-77
2023/10/05 13:44:44;;;;;;;;;;;21.50;50.30;;;;;;5049407;28;19960;-78
2023/10/05 13:47:11;;;;;;;;;;;21.50;50.30;;;;;;5040309;28;19921;-76
2023/10/05 13:49:46;;;;;;;;;;;21.50;50.30;;;;;;5046994;28;19920;-74
2023/10/05 13:52:20;;;;;;;;;;;21.50;50.30;;;;;;5032652;28;19932;-74
2023/10/05 13:54:48;;;;;;;;;;;21.50;50.40;;;;;;5039590;28;19958;-74
2023/10/05 13:57:15;;;;;;;;;;;21.50;50.40;;;;;;5031025;28;19960;-76
2023/10/05 13:59:42;;;;;;;;;;;21.50;50.40;;;;;;5042716;28;19921;-79
2023/10/05 14:02:09;;;;;;;;;;;21.50;50.40;;;;;;5056098;28;20455;-79
2023/10/05 14:04:38;;;;;;;;;;;21.50;50.40;;;;;;5039920;28;19928;-80
2023/10/05 14:07:07;;;;;;;;;;;21.50;50.40;;;;;;5033868;28;20331;-79
2023/10/05 14:09:43;;;;;;;;;;;21.50;50.40;;;;;;5041273;28;19971;-86
2023/10/05 14:12:11;;;;;;;;;;;21.50;50.40;;;;;;5036964;28;20331;-82
2023/10/05 14:14:38;;;;;;;;;;;21.50;50.30;;;;;;5041839;28;19921;-81
2023/10/05 14:17:06;;;;;;;;;;;21.50;50.30;;;;;;5044728;28;19928;-73
2023/10/05 14:19:33;;;;;;;;;;;21.50;50.50;;;;;;5045878;28;19928;-74
2023/10/05 14:22:00;;;;;;;;;;;21.50;50.50;;;;;;5047210;28;20334;-75
2023/10/05 14:24:30;;;;;;;;;;;21.50;50.50;;;;;;5051582;28;20008;-76
2023/10/05 14:26:57;;;;;;;;;;;21.50;50.50;;;;;;5034954;28;19928;-74
2023/10/05 14:29:34;;;;;;;;;;;21.50;50.50;;;;;;5032046;28;19921;-75